createdAt,value
2022-11-24T00:00:22.654Z,24.50
2022-11-24T00:00:54.665Z,27.70
2022-11-24T00:01:26.639Z,24.20
2022-11-24T00:01:58.422Z,23.20
2022-11-24T00:02:31.411Z,22.30
2022-11-24T00:03:00.754Z,22.70
2022-11-24T00:03:32.334Z,22.80
2022-11-24T00:04:07.759Z,22.50
2022-11-24T00:04:37.811Z,24.20
2022-11-24T00:05:06.109Z,22.90
2022-11-24T00:05:37.390Z,23.50
2022-11-24T00:06:09.524Z,23.20
2022-11-24T00:06:41.935Z,30.80
2022-11-24T00:07:14.373Z,21.80
2022-11-24T00:07:49.071Z,25.20
2022-11-24T00:08:17.788Z,23.00
2022-11-24T00:08:48.971Z,26.30
2022-11-24T00:09:20.408Z,24.70
2022-11-24T00:09:51.800Z,25.40
2022-11-24T00:10:24.870Z,19.60
2022-11-24T00:10:53.475Z,24.40
2022-11-24T00:11:24.923Z,26.00
2022-11-24T00:11:57.026Z,27.50
2022-11-24T00:12:29.105Z,23.30
2022-11-24T00:13:03.600Z,24.20
2022-11-24T00:13:33.405Z,24.60
2022-11-24T00:14:06.515Z,29.90
2022-11-24T00:14:36.516Z,23.10
2022-11-24T00:15:09.228Z,23.40
2022-11-24T00:15:40.528Z,27.10
2022-11-24T00:16:11.795Z,24.30
2022-11-24T00:16:43.661Z,25.30
2022-11-24T00:17:14.747Z,27.10
2022-11-24T00:17:46.994Z,24.30
2022-11-24T00:18:18.455Z,25.80
2022-11-24T00:18:50.236Z,22.40
2022-11-24T00:19:22.478Z,26.40
2022-11-24T00:19:53.441Z,22.90
2022-11-24T00:20:24.718Z,27.50
2022-11-24T00:20:58.861Z,24.70
2022-11-24T00:21:27.475Z,26.20
2022-11-24T00:22:01.583Z,22.10
2022-11-24T00:22:30.804Z,24.60
2022-11-24T00:23:04.638Z,23.50
2022-11-24T00:23:33.054Z,21.60
2022-11-24T00:24:06.425Z,21.50
2022-11-24T00:24:36.080Z,26.80
2022-11-24T00:25:07.899Z,24.30
2022-11-24T00:25:40.234Z,27.00
2022-11-24T00:26:11.818Z,25.60
2022-11-24T00:26:46.081Z,20.90
2022-11-24T00:27:14.321Z,23.70
2022-11-24T00:27:46.369Z,22.90
2022-11-24T00:28:19.666Z,27.20
2022-11-24T00:28:47.679Z,25.80
2022-11-24T00:29:19.253Z,24.60
2022-11-24T00:29:51.734Z,24.10
2022-11-24T00:30:23.010Z,20.80
2022-11-24T00:30:53.987Z,25.50
2022-11-24T00:31:26.366Z,24.00
2022-11-24T00:31:57.957Z,24.50
2022-11-24T00:32:29.630Z,25.90
2022-11-24T00:33:00.523Z,24.50
2022-11-24T00:33:32.720Z,23.90
2022-11-24T00:34:03.959Z,21.90
2022-11-24T00:34:35.283Z,21.10
2022-11-24T00:35:06.847Z,22.00
2022-11-24T00:35:38.114Z,20.00
2022-11-24T00:36:09.584Z,24.10
2022-11-24T00:36:41.731Z,21.50
2022-11-24T00:37:13.029Z,26.90
2022-11-24T00:37:49.026Z,21.30
2022-11-24T00:38:14.195Z,23.30
2022-11-24T00:38:46.529Z,22.00
2022-11-24T00:39:17.485Z,25.70
2022-11-24T00:39:48.594Z,24.00
2022-11-24T00:40:19.864Z,23.90
2022-11-24T00:40:51.838Z,24.20
2022-11-24T00:41:23.281Z,22.50
2022-11-24T00:41:54.883Z,24.50
2022-11-24T00:42:26.024Z,21.40
2022-11-24T00:42:57.322Z,21.90
2022-11-24T00:43:28.872Z,27.90
2022-11-24T00:43:59.870Z,27.20
2022-11-24T00:44:32.393Z,26.00
2022-11-24T00:45:13.235Z,29.60
2022-11-24T00:45:36.633Z,21.80
2022-11-24T00:46:05.499Z,22.60
2022-11-24T00:46:36.809Z,27.90
2022-11-24T00:47:10.264Z,24.50
2022-11-24T00:47:39.757Z,22.60
2022-11-24T00:48:17.648Z,21.50
2022-11-24T00:48:43.418Z,20.40
2022-11-24T00:49:15.078Z,22.80
2022-11-24T00:49:48.125Z,24.40
2022-11-24T00:50:19.903Z,19.80
2022-11-24T00:50:50.946Z,21.20
2022-11-24T00:51:22.930Z,22.60
2022-11-24T00:51:54.374Z,25.30
2022-11-24T00:52:27.429Z,20.10
2022-11-24T00:52:55.667Z,20.20
2022-11-24T00:53:27.502Z,21.70
2022-11-24T00:53:59.514Z,24.50
2022-11-24T00:54:31.760Z,20.60
2022-11-24T00:55:02.911Z,26.20
2022-11-24T00:55:34.467Z,20.30
2022-11-24T00:56:07.343Z,18.50
2022-11-24T00:56:38.280Z,19.50
2022-11-24T00:57:10.666Z,21.10
2022-11-24T00:57:42.166Z,21.60
2022-11-24T00:58:14.077Z,17.00
2022-11-24T00:58:44.908Z,21.00
2022-11-24T00:59:15.991Z,21.00
2022-11-24T00:59:46.889Z,19.60
2022-11-24T01:00:17.973Z,23.80
2022-11-24T01:00:48.881Z,18.80
2022-11-24T01:01:19.811Z,22.40
2022-11-24T01:01:51.016Z,17.50
2022-11-24T01:02:22.035Z,20.70
2022-11-24T01:02:52.997Z,17.00
2022-11-24T01:03:23.854Z,22.40
2022-11-24T01:03:54.857Z,19.60
2022-11-24T01:04:25.781Z,21.90
2022-11-24T01:04:56.688Z,25.60
2022-11-24T01:05:27.541Z,18.60
2022-11-24T01:05:58.427Z,19.50
2022-11-24T01:06:29.304Z,22.00
2022-11-24T01:07:00.210Z,19.80
2022-11-24T01:07:31.335Z,19.00
2022-11-24T01:08:02.317Z,20.60
2022-11-24T01:08:33.320Z,24.30
2022-11-24T01:09:04.172Z,20.30
2022-11-24T01:09:35.012Z,21.40
2022-11-24T01:10:05.891Z,22.70
2022-11-24T01:10:36.777Z,22.30
2022-11-24T01:11:07.712Z,20.30
2022-11-24T01:11:38.655Z,22.20
2022-11-24T01:12:09.502Z,22.00
2022-11-24T01:12:40.391Z,23.50
2022-11-24T01:13:11.267Z,19.30
2022-11-24T01:13:42.100Z,22.80
2022-11-24T01:14:13.070Z,22.50
2022-11-24T01:14:43.911Z,23.10
2022-11-24T01:15:14.763Z,23.30
2022-11-24T01:15:45.772Z,26.90
2022-11-24T01:16:16.879Z,24.10
2022-11-24T01:16:48.232Z,28.60
2022-11-24T01:17:19.192Z,25.20
2022-11-24T01:17:50.209Z,24.00
2022-11-24T01:18:21.119Z,25.40
2022-11-24T01:18:52.287Z,23.30
2022-11-24T01:19:23.207Z,26.10
2022-11-24T01:19:54.320Z,23.50
2022-11-24T01:20:25.272Z,22.80
2022-11-24T01:20:56.246Z,26.00
2022-11-24T01:21:27.160Z,22.20
2022-11-24T01:21:58.505Z,22.50
2022-11-24T01:22:29.415Z,25.70
2022-11-24T01:23:00.271Z,23.00
2022-11-24T01:23:31.264Z,26.20
2022-11-24T01:24:02.121Z,24.80
2022-11-24T01:24:33.425Z,29.80
2022-11-24T01:25:04.716Z,25.10
2022-11-24T01:25:35.612Z,20.80
2022-11-24T01:26:06.615Z,26.60
2022-11-24T01:26:37.576Z,23.30
2022-11-24T01:27:08.512Z,25.70
2022-11-24T01:27:39.437Z,26.00
2022-11-24T01:28:10.348Z,26.60
2022-11-24T01:28:46.588Z,29.80
2022-11-24T01:29:14.225Z,26.20
2022-11-24T01:29:45.181Z,27.70
2022-11-24T01:30:16.277Z,25.60
2022-11-24T01:30:47.347Z,23.70
2022-11-24T01:31:18.304Z,25.80
2022-11-24T01:31:49.190Z,28.20
2022-11-24T01:32:20.072Z,26.60
2022-11-24T01:32:50.986Z,27.30
2022-11-24T01:33:21.919Z,24.50
2022-11-24T01:33:52.920Z,30.20
2022-11-24T01:34:23.754Z,24.00
2022-11-24T01:34:55.036Z,23.10
2022-11-24T01:35:25.991Z,28.10
2022-11-24T01:35:57.236Z,28.80
2022-11-24T01:36:28.085Z,29.50
2022-11-24T01:36:59.050Z,27.20
2022-11-24T01:37:30.109Z,27.60
2022-11-24T01:38:01.107Z,24.20
2022-11-24T01:38:32.068Z,30.20
2022-11-24T01:39:03.111Z,27.90
2022-11-24T01:39:34.124Z,23.70
2022-11-24T01:40:05.435Z,31.40
2022-11-24T01:40:36.438Z,26.60
2022-11-24T01:41:07.586Z,32.20
2022-11-24T01:41:38.559Z,27.30
2022-11-24T01:42:09.618Z,26.20
2022-11-24T01:42:40.561Z,27.00
2022-11-24T01:43:11.565Z,29.40
2022-11-24T01:43:42.859Z,28.20
2022-11-24T01:44:13.784Z,29.60
2022-11-24T01:44:45.908Z,31.80
2022-11-24T01:45:17.061Z,28.10
2022-11-24T01:45:48.132Z,27.00
2022-11-24T01:46:20.999Z,27.90
2022-11-24T01:46:52.001Z,29.80
2022-11-24T01:47:22.962Z,28.30
2022-11-24T01:47:53.827Z,28.40
2022-11-24T01:48:27.527Z,26.10
2022-11-24T01:48:56.029Z,24.10
2022-11-24T01:49:26.980Z,26.90
2022-11-24T01:49:57.870Z,27.80
2022-11-24T01:50:28.833Z,26.10
2022-11-24T01:50:59.728Z,26.00
2022-11-24T01:51:30.691Z,27.60
2022-11-24T01:52:01.560Z,25.90
2022-11-24T01:52:32.458Z,28.70
2022-11-24T01:53:03.495Z,29.60
2022-11-24T01:53:34.396Z,32.00
2022-11-24T01:54:05.288Z,26.90
2022-11-24T01:54:36.510Z,31.60
2022-11-24T01:55:07.644Z,28.30
2022-11-24T01:55:38.469Z,31.40
2022-11-24T01:56:09.605Z,31.40
2022-11-24T01:56:40.539Z,25.60
2022-11-24T01:57:11.394Z,29.00
2022-11-24T01:57:42.470Z,30.30
2022-11-24T01:58:13.533Z,28.60
2022-11-24T01:58:44.516Z,29.80
2022-11-24T01:59:15.961Z,22.90
2022-11-24T01:59:47.133Z,33.20
2022-11-24T02:00:18.045Z,28.40
2022-11-24T02:00:48.959Z,29.40
2022-11-24T02:01:20.045Z,29.30
2022-11-24T02:01:51.072Z,28.10
2022-11-24T02:02:22.088Z,27.50
2022-11-24T02:02:53.272Z,27.40
2022-11-24T02:03:24.126Z,33.50
2022-11-24T02:03:55.320Z,27.20
2022-11-24T02:04:26.589Z,28.20
2022-11-24T02:04:57.991Z,29.30
2022-11-24T02:05:29.111Z,29.10
2022-11-24T02:06:00.038Z,29.90
2022-11-24T02:06:31.127Z,26.50
2022-11-24T02:07:02.166Z,24.40
2022-11-24T02:07:33.310Z,34.60
2022-11-24T02:08:04.246Z,27.60
2022-11-24T02:08:35.633Z,34.20
2022-11-24T02:09:07.535Z,29.50
2022-11-24T02:09:38.385Z,29.40
2022-11-24T02:10:09.293Z,29.80
2022-11-24T02:10:41.156Z,36.20
2022-11-24T02:11:12.087Z,29.10
2022-11-24T02:11:43.091Z,24.80
2022-11-24T02:12:14.073Z,32.90
2022-11-24T02:12:45.168Z,28.50
2022-11-24T02:13:16.156Z,29.00
2022-11-24T02:13:48.840Z,29.30
2022-11-24T02:14:19.933Z,27.20
2022-11-24T02:14:50.811Z,28.10
2022-11-24T02:15:23.286Z,27.60
2022-11-24T02:15:54.549Z,24.80
2022-11-24T02:16:25.948Z,28.20
2022-11-24T02:16:57.883Z,32.00
2022-11-24T02:17:28.748Z,28.70
2022-11-24T02:17:59.612Z,27.00
2022-11-24T02:18:30.579Z,29.00
2022-11-24T02:19:02.046Z,23.90
2022-11-24T02:19:33.339Z,32.30
2022-11-24T02:20:04.438Z,28.70
2022-11-24T02:20:36.611Z,27.20
2022-11-24T02:21:07.701Z,29.60
2022-11-24T02:21:38.662Z,33.20
2022-11-24T02:22:09.793Z,28.80
2022-11-24T02:22:40.960Z,33.90
2022-11-24T02:23:11.927Z,28.80
2022-11-24T02:23:42.814Z,28.00
2022-11-24T02:24:13.707Z,25.30
2022-11-24T02:24:44.620Z,26.30
2022-11-24T02:25:15.930Z,32.20
2022-11-24T02:25:47.014Z,30.50
2022-11-24T02:26:18.159Z,29.90
2022-11-24T02:26:49.108Z,28.80
2022-11-24T02:27:20.010Z,30.90
2022-11-24T02:42:07.542Z,30.70
2022-11-24T02:42:38.774Z,36.60
2022-11-24T02:43:10.255Z,35.90
2022-11-24T02:43:41.591Z,41.10
2022-11-24T02:44:12.565Z,34.90
2022-11-24T02:44:43.526Z,35.00
2022-11-24T02:45:16.278Z,35.20
2022-11-24T02:45:48.379Z,29.30
2022-11-24T02:46:19.657Z,27.20
2022-11-24T02:46:51.037Z,34.60
2022-11-24T02:47:22.050Z,34.20
2022-11-24T02:47:53.264Z,30.50
2022-11-24T02:48:24.830Z,31.80
2022-11-24T02:48:56.925Z,30.40
2022-11-24T02:49:28.194Z,31.80
2022-11-24T02:50:00.401Z,34.50
2022-11-24T02:50:32.434Z,32.50
2022-11-24T02:51:03.542Z,34.50
2022-11-24T02:51:34.848Z,32.30
2022-11-24T02:52:06.188Z,36.90
2022-11-24T02:52:40.112Z,27.70
2022-11-24T02:53:10.103Z,36.40
2022-11-24T02:53:43.171Z,27.50
2022-11-24T02:54:12.138Z,30.20
2022-11-24T02:54:44.949Z,35.60
2022-11-24T02:55:18.387Z,29.00
2022-11-24T02:55:46.684Z,30.80
2022-11-24T02:56:19.495Z,36.40
2022-11-24T02:56:51.555Z,32.50
2022-11-24T04:05:57.810Z,34.00
2022-11-24T04:06:28.599Z,32.40
2022-11-24T04:06:59.394Z,38.40
2022-11-24T04:07:30.195Z,30.40
2022-11-24T04:08:01.013Z,38.40
2022-11-24T04:08:31.806Z,38.80
2022-11-24T04:09:02.583Z,33.50
2022-11-24T04:09:33.334Z,34.80
2022-11-24T04:10:04.101Z,33.00
2022-11-24T04:10:34.862Z,28.80
2022-11-24T04:11:05.614Z,39.90
2022-11-24T04:11:36.386Z,31.90
2022-11-24T04:12:07.153Z,30.90
2022-11-24T04:12:37.923Z,33.70
2022-11-24T04:13:08.690Z,33.70
2022-11-24T04:13:39.445Z,39.60
2022-11-24T04:14:13.507Z,34.90
2022-11-24T04:14:41.552Z,38.60
2022-11-24T04:15:12.351Z,38.10
2022-11-24T04:15:43.164Z,36.80
2022-11-24T04:16:14.033Z,36.10
2022-11-24T04:16:44.820Z,39.50
2022-11-24T04:17:15.578Z,35.50
2022-11-24T04:17:46.345Z,39.80
2022-11-24T04:18:17.411Z,39.00
2022-11-24T04:18:48.498Z,36.40
2022-11-24T04:19:19.280Z,42.30
2022-11-24T04:19:50.051Z,35.30
2022-11-24T04:20:20.827Z,35.00
2022-11-24T04:20:51.585Z,35.70
2022-11-24T04:21:22.363Z,31.60
2022-11-24T04:21:53.147Z,32.90
2022-11-24T04:22:23.917Z,30.50
2022-11-24T04:22:54.695Z,31.80
2022-11-24T04:23:25.474Z,35.60
2022-11-24T04:23:56.258Z,39.80
2022-11-24T04:24:27.047Z,33.10
2022-11-24T04:24:57.817Z,31.60
2022-11-24T04:25:28.597Z,39.30
2022-11-24T04:25:59.416Z,36.30
2022-11-24T04:26:30.165Z,35.20
2022-11-24T04:27:00.927Z,38.50
2022-11-24T04:27:31.699Z,33.80
2022-11-24T04:28:02.543Z,39.70
2022-11-24T04:28:33.298Z,34.50
2022-11-24T04:29:04.105Z,37.50
2022-11-24T04:29:34.884Z,32.90
2022-11-24T04:30:05.662Z,31.10
2022-11-24T04:30:36.426Z,36.20
2022-11-24T04:31:07.233Z,32.80
2022-11-24T04:31:38.074Z,38.80
2022-11-24T04:32:08.868Z,39.10
2022-11-24T04:32:39.626Z,37.50
2022-11-24T04:33:10.398Z,34.30
2022-11-24T04:33:41.166Z,35.30
2022-11-24T04:34:11.986Z,36.30
2022-11-24T04:34:42.767Z,32.00
2022-11-24T04:35:13.528Z,36.80
2022-11-24T04:35:44.327Z,30.40
2022-11-24T04:36:15.098Z,32.40
2022-11-24T04:36:45.870Z,28.70
2022-11-24T04:37:16.711Z,36.10
2022-11-24T04:37:47.495Z,32.00
2022-11-24T04:39:24.143Z,31.90
2022-11-24T04:39:24.750Z,32.70
2022-11-24T04:39:28.087Z,32.90
2022-11-24T04:39:56.117Z,29.10
2022-11-24T04:40:26.880Z,30.60
2022-11-24T04:40:57.668Z,34.80
2022-11-24T04:41:28.444Z,33.40
2022-11-24T04:41:59.207Z,36.30
2022-11-24T04:42:29.979Z,36.60
2022-11-24T04:43:00.765Z,31.00
2022-11-24T04:43:35.168Z,35.20
2022-11-24T04:44:04.179Z,34.60
2022-11-24T04:44:35.161Z,28.50
2022-11-24T04:45:06.225Z,28.70
2022-11-24T04:45:36.997Z,30.00
2022-11-24T04:46:07.794Z,37.50
2022-11-24T04:46:38.615Z,32.00
2022-11-24T04:47:09.415Z,36.60
2022-11-24T04:47:40.180Z,33.50
2022-11-24T04:48:10.972Z,35.10
2022-11-24T04:48:41.730Z,33.70
2022-11-24T04:49:12.530Z,39.40
2022-11-24T04:49:43.289Z,33.40
2022-11-24T04:50:14.049Z,39.30
2022-11-24T04:50:44.832Z,37.40
2022-11-24T04:51:15.602Z,39.30
2022-11-24T04:51:46.381Z,35.30
2022-11-24T04:52:17.162Z,34.60
2022-11-24T04:52:47.919Z,32.50
2022-11-24T04:53:18.691Z,30.40
2022-11-24T04:53:49.451Z,37.30
2022-11-24T04:54:20.261Z,37.70
2022-11-24T04:54:51.027Z,37.20
2022-11-24T04:55:21.804Z,32.30
2022-11-24T04:55:52.548Z,35.10
2022-11-24T04:56:23.302Z,38.30
2022-11-24T04:56:54.071Z,36.30
2022-11-24T04:57:24.845Z,39.30
2022-11-24T04:57:55.619Z,30.20
2022-11-24T04:58:26.391Z,39.00
2022-11-24T04:58:57.161Z,38.70
2022-11-24T04:59:27.980Z,33.80
2022-11-24T04:59:58.743Z,35.10
2022-11-24T05:00:29.517Z,36.50
2022-11-24T05:01:00.312Z,35.70
2022-11-24T05:01:31.134Z,34.70
2022-11-24T05:02:02.072Z,37.90
2022-11-24T05:02:32.881Z,37.20
2022-11-24T05:03:03.662Z,35.00
2022-11-24T05:03:34.423Z,33.70
2022-11-24T05:04:05.209Z,33.90
2022-11-24T05:04:36.515Z,32.80
2022-11-24T05:05:07.489Z,33.40
2022-11-24T05:05:38.254Z,36.20
2022-11-24T05:06:09.023Z,35.60
2022-11-24T05:06:39.792Z,30.40
2022-11-24T05:07:14.994Z,34.40
2022-11-24T05:07:43.204Z,37.40
2022-11-24T05:08:14.004Z,36.40
2022-11-24T05:08:44.764Z,35.50
2022-11-24T05:09:15.544Z,40.90
2022-11-24T05:09:59.024Z,35.20
2022-11-24T05:10:18.925Z,35.50
2022-11-24T05:10:49.682Z,36.80
2022-11-24T05:11:20.472Z,43.00
2022-11-24T05:11:51.244Z,39.90
2022-11-24T05:12:22.004Z,36.80
2022-11-24T05:12:52.774Z,38.60
2022-11-24T05:13:23.566Z,36.30
2022-11-24T05:13:54.325Z,40.40
2022-11-24T05:14:25.113Z,41.40
2022-11-24T05:14:55.874Z,37.40
2022-11-24T05:15:26.644Z,36.40
2022-11-24T05:15:57.432Z,41.20
2022-11-24T05:16:28.333Z,38.90
2022-11-24T05:16:59.095Z,34.90
2022-11-24T05:17:29.865Z,33.50
2022-11-24T05:18:00.635Z,39.30
2022-11-24T05:18:31.424Z,34.50
2022-11-24T05:19:02.209Z,38.00
2022-11-24T05:19:32.985Z,37.90
2022-11-24T05:20:03.764Z,37.20
2022-11-24T05:20:34.535Z,37.50
2022-11-24T05:21:05.295Z,42.10
2022-11-24T05:21:36.075Z,36.30
2022-11-24T05:22:06.826Z,39.40
2022-11-24T05:22:37.604Z,33.40
2022-11-24T05:23:08.364Z,49.10
2022-11-24T05:23:39.128Z,38.90
2022-11-24T05:24:09.886Z,39.50
2022-11-24T05:24:40.685Z,43.80
2022-11-24T05:25:11.455Z,34.30
2022-11-24T05:25:47.316Z,35.20
2022-11-24T05:26:14.860Z,38.30
2022-11-24T05:26:45.632Z,38.30
2022-11-24T05:27:16.387Z,35.20
2022-11-24T05:27:47.167Z,38.60
2022-11-24T05:28:17.938Z,34.30
2022-11-24T05:28:48.714Z,35.90
2022-11-24T05:29:19.516Z,33.90
2022-11-24T05:29:50.338Z,34.00
2022-11-24T05:30:21.104Z,33.80
2022-11-24T05:30:51.875Z,36.00
2022-11-24T05:31:22.736Z,36.50
2022-11-24T05:31:53.487Z,38.20
2022-11-24T05:32:24.247Z,31.90
2022-11-24T05:32:55.036Z,38.00
2022-11-24T05:33:25.810Z,37.90
2022-11-24T05:33:56.568Z,36.90
2022-11-24T05:34:27.337Z,39.40
2022-11-24T05:34:58.120Z,43.70
2022-11-24T05:35:28.948Z,35.20
2022-11-24T05:35:59.705Z,39.70
2022-11-24T05:36:30.498Z,42.40
2022-11-24T05:37:01.266Z,40.20
2022-11-24T05:37:32.039Z,44.30
2022-11-24T05:38:02.839Z,39.90
2022-11-24T05:38:33.607Z,40.40
2022-11-24T05:39:04.366Z,33.60
2022-11-24T05:39:35.143Z,42.50
2022-11-24T05:40:05.979Z,38.40
2022-11-24T05:40:36.750Z,38.60
2022-11-24T05:41:07.527Z,40.80
2022-11-24T05:41:39.253Z,44.60
2022-11-24T05:42:10.086Z,41.50
2022-11-24T05:42:46.082Z,39.60
2022-11-24T05:43:13.497Z,41.00
2022-11-24T05:43:44.278Z,46.80
2022-11-24T05:44:15.056Z,40.20
2022-11-24T05:44:45.870Z,49.50
2022-11-24T05:45:16.629Z,41.80
2022-11-24T05:45:47.432Z,37.00
2022-11-24T05:46:18.250Z,43.40
2022-11-24T05:46:49.101Z,42.10
2022-11-24T05:47:20.000Z,39.50
2022-11-24T05:47:50.769Z,40.70
2022-11-24T05:48:21.572Z,44.30
2022-11-24T05:48:52.336Z,42.10
2022-11-24T05:49:23.089Z,52.20
2022-11-24T05:49:53.889Z,39.00
2022-11-24T05:50:24.681Z,39.20
2022-11-24T05:50:55.448Z,34.00
2022-11-24T05:51:26.219Z,40.80
2022-11-24T05:51:57.022Z,34.80
2022-11-24T05:52:27.811Z,45.10
2022-11-24T05:52:58.563Z,38.00
2022-11-24T05:53:29.339Z,42.70
2022-11-24T05:54:00.123Z,39.90
2022-11-24T05:54:31.010Z,45.50
2022-11-24T05:55:01.828Z,40.70
2022-11-24T05:55:32.603Z,38.30
2022-11-24T05:56:03.384Z,39.20
2022-11-24T05:56:34.164Z,39.10
2022-11-24T05:57:04.942Z,37.00
2022-11-24T05:57:35.722Z,46.10
2022-11-24T05:58:06.491Z,40.00
2022-11-24T05:58:37.336Z,41.80
2022-11-24T05:59:09.970Z,41.30
2022-11-24T05:59:40.999Z,38.10
2022-11-24T06:00:11.791Z,52.90
2022-11-24T06:00:42.542Z,45.30
2022-11-24T06:01:13.339Z,48.20
2022-11-24T06:01:44.275Z,40.40
2022-11-24T06:02:15.206Z,37.70
2022-11-24T06:02:46.188Z,36.90
2022-11-24T06:03:17.190Z,34.30
2022-11-24T06:03:47.982Z,39.00
2022-11-24T06:04:18.765Z,37.60
2022-11-24T06:04:49.562Z,39.20
2022-11-24T06:05:20.364Z,36.20
2022-11-24T06:05:51.122Z,40.00
2022-11-24T06:06:21.883Z,34.90
2022-11-24T06:06:52.671Z,39.00
2022-11-24T06:07:23.467Z,40.90
2022-11-24T06:07:54.351Z,40.10
2022-11-24T06:08:29.661Z,48.10
2022-11-24T06:08:57.763Z,36.90
2022-11-24T06:09:28.531Z,42.00
2022-11-24T06:09:59.289Z,39.60
2022-11-24T06:10:30.081Z,40.50
2022-11-24T06:11:00.863Z,41.80
2022-11-24T06:11:31.623Z,39.60
2022-11-24T06:12:02.394Z,42.30
2022-11-24T06:12:33.183Z,40.70
2022-11-24T06:13:03.997Z,38.40
2022-11-24T06:13:34.837Z,35.60
2022-11-24T06:14:09.789Z,37.00
2022-11-24T06:14:38.410Z,40.30
2022-11-24T06:15:09.222Z,43.00
2022-11-24T06:15:40.038Z,36.90
2022-11-24T06:16:10.856Z,45.80
2022-11-24T06:16:41.690Z,46.80
2022-11-24T06:17:12.513Z,44.70
2022-11-24T06:17:43.297Z,42.30
2022-11-24T06:18:14.068Z,44.80
2022-11-24T06:18:44.844Z,42.70
2022-11-24T06:19:15.622Z,39.00
2022-11-24T06:19:46.396Z,46.30
2022-11-24T06:20:17.184Z,39.90
2022-11-24T06:21:09.283Z,39.80
2022-11-24T06:21:20.597Z,39.80
2022-11-24T06:21:51.355Z,40.40
2022-11-24T06:22:22.131Z,43.10
2022-11-24T06:22:52.905Z,42.80
2022-11-24T06:23:23.658Z,42.20
2022-11-24T06:23:54.407Z,41.10
2022-11-24T06:24:25.385Z,39.20
2022-11-24T06:24:56.123Z,39.80
2022-11-24T06:25:26.885Z,39.50
2022-11-24T06:25:57.645Z,47.70
2022-11-24T06:26:28.384Z,44.10
2022-11-24T06:26:59.128Z,45.50
2022-11-24T06:27:29.865Z,47.40
2022-11-24T06:28:00.609Z,44.90
2022-11-24T06:28:31.345Z,43.00
2022-11-24T06:29:02.084Z,41.10
2022-11-24T06:29:32.826Z,46.30
2022-11-24T06:30:03.581Z,40.80
2022-11-24T06:30:34.336Z,48.50
2022-11-24T06:31:05.087Z,38.40
2022-11-24T06:31:35.865Z,41.60
2022-11-24T06:32:06.740Z,41.60
2022-11-24T06:32:37.518Z,45.20
2022-11-24T06:33:08.268Z,51.90
2022-11-24T06:33:39.011Z,42.40
2022-11-24T06:34:10.014Z,40.30
2022-11-24T06:34:40.895Z,38.80
2022-11-24T06:35:11.719Z,41.60
2022-11-24T06:35:42.490Z,47.40
2022-11-24T06:36:13.255Z,43.50
2022-11-24T06:36:44.036Z,37.80
2022-11-24T06:37:14.799Z,44.10
2022-11-24T06:37:45.575Z,45.60
2022-11-24T06:38:20.065Z,45.70
2022-11-24T06:38:48.928Z,49.00
2022-11-24T06:39:19.683Z,42.80
2022-11-24T06:39:50.435Z,43.20
2022-11-24T06:40:21.198Z,45.20
2022-11-24T06:40:52.028Z,50.70
2022-11-24T06:41:22.789Z,46.00
2022-11-24T06:41:53.575Z,46.50
2022-11-24T06:42:24.321Z,47.70
2022-11-24T06:42:55.260Z,49.70
2022-11-24T06:43:26.044Z,39.70
2022-11-24T06:43:56.960Z,44.10
2022-11-24T06:44:27.711Z,44.10
2022-11-24T06:44:58.458Z,40.70
2022-11-24T06:45:29.303Z,42.30
2022-11-24T06:46:00.080Z,39.90
2022-11-24T06:46:30.868Z,39.30
2022-11-24T06:47:01.642Z,45.80
2022-11-24T06:47:32.401Z,39.00
2022-11-24T06:48:03.150Z,45.10
2022-11-24T06:48:33.940Z,44.10
2022-11-24T06:49:04.701Z,40.50
2022-11-24T06:49:35.453Z,45.40
2022-11-24T06:50:06.248Z,52.40
2022-11-24T06:50:37.054Z,43.90
2022-11-24T06:51:07.829Z,46.70
2022-11-24T06:51:38.580Z,47.80
2022-11-24T06:52:09.330Z,38.50
2022-11-24T06:52:40.089Z,42.50
2022-11-24T06:53:10.839Z,44.60
2022-11-24T06:53:41.590Z,39.20
2022-11-24T06:54:12.331Z,42.60
2022-11-24T06:54:43.090Z,44.90
2022-11-24T06:55:13.832Z,42.20
2022-11-24T06:55:44.609Z,40.50
2022-11-24T06:56:16.926Z,46.60
2022-11-24T06:56:47.786Z,40.80
2022-11-24T06:57:18.538Z,40.40
2022-11-24T06:57:49.279Z,39.70
2022-11-24T06:58:20.025Z,46.00
2022-11-24T06:58:50.768Z,37.50
2022-11-24T06:59:21.511Z,38.30
2022-11-24T06:59:52.261Z,47.50
2022-11-24T07:00:23.011Z,44.00
2022-11-24T07:00:53.910Z,52.70
2022-11-24T07:01:24.817Z,46.30
2022-11-24T07:01:55.609Z,44.20
2022-11-24T07:02:26.362Z,48.00
2022-11-24T07:02:57.156Z,48.20
2022-11-24T07:03:27.934Z,43.00
2022-11-24T07:03:58.692Z,44.10
2022-11-24T07:04:29.450Z,52.40
2022-11-24T07:05:00.194Z,46.10
2022-11-24T07:05:30.967Z,45.80
2022-11-24T07:06:01.701Z,47.50
2022-11-24T07:06:32.453Z,43.10
2022-11-24T07:07:03.203Z,39.80
2022-11-24T07:07:34.019Z,49.00
2022-11-24T07:08:04.791Z,42.40
2022-11-24T07:08:35.537Z,43.50
2022-11-24T07:09:06.283Z,46.70
2022-11-24T07:09:37.035Z,42.70
2022-11-24T07:10:07.779Z,37.30
2022-11-24T07:10:38.549Z,43.20
2022-11-24T07:11:09.292Z,42.20
2022-11-24T07:11:40.057Z,44.60
2022-11-24T07:12:10.811Z,44.10
2022-11-24T07:12:41.563Z,40.80
2022-11-24T07:13:12.302Z,39.60
2022-11-24T07:13:43.062Z,35.40
2022-11-24T07:14:13.807Z,40.70
2022-11-24T07:14:44.564Z,40.50
2022-11-24T07:15:15.293Z,45.10
2022-11-24T07:15:46.053Z,44.60
2022-11-24T07:16:16.855Z,41.00
2022-11-24T07:16:47.675Z,47.20
2022-11-24T07:17:18.411Z,47.50
2022-11-24T07:17:49.153Z,47.00
2022-11-24T07:18:19.910Z,46.50
2022-11-24T07:18:50.664Z,42.10
2022-11-24T07:19:24.811Z,43.90
2022-11-24T07:19:52.963Z,55.60
2022-11-24T07:20:23.713Z,47.80
2022-11-24T07:20:54.481Z,41.50
2022-11-24T07:21:25.236Z,45.90
2022-11-24T07:21:55.983Z,44.80
2022-11-24T07:22:26.734Z,52.80
2022-11-24T07:22:57.475Z,52.10
2022-11-24T07:23:28.215Z,59.40
2022-11-24T07:23:58.975Z,52.60
2022-11-24T07:24:29.725Z,49.10
2022-11-24T07:25:00.465Z,41.60
2022-11-24T07:25:31.206Z,44.20
2022-11-24T07:26:06.575Z,45.60
2022-11-24T07:26:34.574Z,49.20
2022-11-24T07:27:05.327Z,42.90
2022-11-24T07:27:36.088Z,47.70
2022-11-24T07:28:06.825Z,50.30
2022-11-24T07:28:37.574Z,53.10
2022-11-24T07:29:08.336Z,50.60
2022-11-24T07:29:39.095Z,51.00
2022-11-24T07:30:09.845Z,48.80
2022-11-24T07:30:40.613Z,46.00
2022-11-24T07:31:11.373Z,46.30
2022-11-24T07:31:42.152Z,45.20
2022-11-24T07:32:12.974Z,51.20
2022-11-24T07:32:43.737Z,46.40
2022-11-24T07:33:14.484Z,43.50
2022-11-24T07:33:45.227Z,48.40
2022-11-24T07:34:15.983Z,43.60
2022-11-24T07:34:46.727Z,45.40
2022-11-24T07:35:17.488Z,52.60
2022-11-24T07:35:48.247Z,49.40
2022-11-24T07:36:19.007Z,43.20
2022-11-24T07:36:49.755Z,47.00
2022-11-24T07:37:20.496Z,48.20
2022-11-24T07:37:51.249Z,40.70
2022-11-24T07:38:21.989Z,55.90
2022-11-24T07:38:52.736Z,48.90
2022-11-24T07:39:23.497Z,48.80
2022-11-24T07:39:54.242Z,46.10
2022-11-24T07:40:24.991Z,47.60
2022-11-24T07:40:55.768Z,48.20
2022-11-24T07:41:26.517Z,52.00
2022-11-24T07:41:57.278Z,54.00
2022-11-24T07:42:28.028Z,38.30
2022-11-24T07:42:58.769Z,47.70
2022-11-24T07:43:29.509Z,47.20
2022-11-24T07:44:00.262Z,51.40
2022-11-24T07:44:31.040Z,43.80
2022-11-24T07:45:01.787Z,48.70
2022-11-24T07:45:34.117Z,49.00
2022-11-24T07:46:04.995Z,46.60
2022-11-24T07:46:35.932Z,44.10
2022-11-24T07:47:06.739Z,45.00
2022-11-24T07:47:37.491Z,44.40
2022-11-24T07:48:08.248Z,47.20
2022-11-24T07:48:39.000Z,52.00
2022-11-24T07:49:09.750Z,45.00
2022-11-24T07:49:40.501Z,48.90
2022-11-24T07:50:11.277Z,40.20
2022-11-24T07:50:42.001Z,42.40
2022-11-24T07:51:12.788Z,47.30
2022-11-24T07:51:43.555Z,48.70
2022-11-24T07:52:14.291Z,46.10
2022-11-24T07:52:45.039Z,48.20
2022-11-24T07:53:15.812Z,51.00
2022-11-24T07:53:46.561Z,45.50
2022-11-24T07:54:17.302Z,46.70
2022-11-24T07:54:48.058Z,51.50
2022-11-24T07:55:18.809Z,42.80
2022-11-24T07:55:49.571Z,51.30
2022-11-24T07:56:20.311Z,45.80
2022-11-24T07:56:51.058Z,52.90
2022-11-24T07:57:21.812Z,56.10
2022-11-24T07:57:52.560Z,46.40
2022-11-24T07:58:23.660Z,45.00
2022-11-24T07:58:56.255Z,46.60
2022-11-24T07:59:26.994Z,51.00
2022-11-24T07:59:57.779Z,47.50
2022-11-24T08:00:28.509Z,49.10
2022-11-24T08:00:59.279Z,43.00
2022-11-24T08:01:30.057Z,44.60
2022-11-24T08:02:00.828Z,47.40
2022-11-24T08:02:31.593Z,46.60